sensor_id;sensor_type;location;lat;lon;timestamp;P1;durP1;ratioP1;P2;durP2;ratioP2
79330;SDS011;68797;49.782;19.054;2023-10-08T00:01:09;8.85;;;3.08;;
79330;SDS011;68797;49.782;19.054;2023-10-08T00:03:51;11.55;;;3.88;;
79330;SDS011;68797;49.782;19.054;2023-10-08T00:06:24;8.57;;;3.25;;
79330;SDS011;68797;49.782;19.054;2023-10-08T00:08:50;11.52;;;3.05;;
79330;SDS011;68797;49.782;19.054;2023-10-08T00:11:18;9.50;;;3.47;;
79330;SDS011;68797;49.782;19.054;2023-10-08T00:13:45;8.32;;;3.92;;
79330;SDS011;68797;49.782;19.054;2023-10-08T00:16:14;7.47;;;3.55;;
79330;SDS011;68797;49.782;19.054;2023-10-08T00:18:42;6.30;;;3.28;;
79330;SDS011;68797;49.782;19.054;2023-10-08T00:21:18;8.57;;;3.35;;
79330;SDS011;68797;49.782;19.054;2023-10-08T00:23:46;10.80;;;5.85;;
79330;SDS011;68797;49.782;19.054;2023-10-08T00:26:18;6.90;;;3.00;;
79330;SDS011;68797;49.782;19.054;2023-10-08T00:29:02;7.05;;;3.05;;
79330;SDS011;68797;49.782;19.054;2023-10-08T00:31:43;8.50;;;3.13;;
79330;SDS011;68797;49.782;19.054;2023-10-08T00:34:15;6.55;;;3.10;;
79330;SDS011;68797;49.782;19.054;2023-10-08T00:36:48;6.20;;;2.83;;
79330;SDS011;68797;49.782;19.054;2023-10-08T00:39:14;7.90;;;3.22;;
79330;SDS011;68797;49.782;19.054;2023-10-08T00:45:30;11.48;;;3.08;;
79330;SDS011;68797;49.782;19.054;2023-10-08T00:50:23;10.82;;;3.85;;
79330;SDS011;68797;49.782;19.054;2023-10-08T00:53:00;8.32;;;3.25;;
79330;SDS011;68797;49.782;19.054;2023-10-08T00:58:01;11.25;;;3.45;;
79330;SDS011;68797;49.782;19.054;2023-10-08T01:00:37;7.22;;;2.88;;
79330;SDS011;68797;49.782;19.054;2023-10-08T01:03:07;10.70;;;3.75;;
79330;SDS011;68797;49.782;19.054;2023-10-08T01:05:41;7.65;;;3.08;;
79330;SDS011;68797;49.782;19.054;2023-10-08T01:08:13;7.75;;;3.38;;
79330;SDS011;68797;49.782;19.054;2023-10-08T01:10:47;9.35;;;3.28;;
79330;SDS011;68797;49.782;19.054;2023-10-08T01:13:18;10.93;;;2.90;;
79330;SDS011;68797;49.782;19.054;2023-10-08T01:15:46;8.10;;;3.28;;
79330;SDS011;68797;49.782;19.054;2023-10-08T01:18:16;7.05;;;3.47;;
79330;SDS011;68797;49.782;19.054;2023-10-08T01:20:54;5.95;;;3.08;;
79330;SDS011;68797;49.782;19.054;2023-10-08T01:23:22;6.75;;;2.80;;
79330;SDS011;68797;49.782;19.054;2023-10-08T01:25:52;10.18;;;3.35;;
79330;SDS011;68797;49.782;19.054;2023-10-08T01:28:23;6.30;;;3.45;;
79330;SDS011;68797;49.782;19.054;2023-10-08T01:30:55;4.85;;;2.97;;
79330;SDS011;68797;49.782;19.054;2023-10-08T01:33:23;7.00;;;2.85;;
79330;SDS011;68797;49.782;19.054;2023-10-08T01:35:53;6.22;;;3.05;;
79330;SDS011;68797;49.782;19.054;2023-10-08T01:40:49;8.13;;;3.88;;
79330;SDS011;68797;49.782;19.054;2023-10-08T01:43:17;9.38;;;3.33;;
79330;SDS011;68797;49.782;19.054;2023-10-08T01:45:43;5.57;;;2.83;;
79330;SDS011;68797;49.782;19.054;2023-10-08T01:48:15;9.60;;;3.67;;
79330;SDS011;68797;49.782;19.054;2023-10-08T01:50:53;7.35;;;3.22;;
79330;SDS011;68797;49.782;19.054;2023-10-08T01:53:21;5.00;;;2.50;;
79330;SDS011;68797;49.782;19.054;2023-10-08T01:55:47;5.65;;;2.78;;
79330;SDS011;68797;49.782;19.054;2023-10-08T01:58:18;8.32;;;2.63;;
79330;SDS011;68797;49.782;19.054;2023-10-08T02:00:45;5.95;;;2.95;;
79330;SDS011;68797;49.782;19.054;2023-10-08T02:03:14;8.10;;;2.80;;
79330;SDS011;68797;49.782;19.054;2023-10-08T02:05:42;10.00;;;3.42;;
79330;SDS011;68797;49.782;19.054;2023-10-08T02:08:09;7.28;;;3.33;;
79330;SDS011;68797;49.782;19.054;2023-10-08T02:10:40;4.60;;;2.90;;
79330;SDS011;68797;49.782;19.054;2023-10-08T02:13:09;6.65;;;2.97;;
79330;SDS011;68797;49.782;19.054;2023-10-08T02:15:40;7.25;;;3.00;;
79330;SDS011;68797;49.782;19.054;2023-10-08T02:18:07;8.73;;;3.08;;
79330;SDS011;68797;49.782;19.054;2023-10-08T02:20:36;7.72;;;2.90;;
79330;SDS011;68797;49.782;19.054;2023-10-08T02:23:02;7.40;;;3.58;;
79330;SDS011;68797;49.782;19.054;2023-10-08T02:25:31;8.32;;;3.03;;
79330;SDS011;68797;49.782;19.054;2023-10-08T02:27:58;5.53;;;2.67;;
79330;SDS011;68797;49.782;19.054;2023-10-08T02:30:24;7.13;;;3.38;;
79330;SDS011;68797;49.782;19.054;2023-10-08T02:32:50;6.03;;;3.13;;
79330;SDS011;68797;49.782;19.054;2023-10-08T02:35:18;7.28;;;2.58;;
79330;SDS011;68797;49.782;19.054;2023-10-08T02:37:44;7.82;;;2.83;;
79330;SDS011;68797;49.782;19.054;2023-10-08T02:40:11;8.68;;;3.30;;
79330;SDS011;68797;49.782;19.054;2023-10-08T02:42:54;7.55;;;3.28;;
79330;SDS011;68797;49.782;19.054;2023-10-08T02:45:27;8.43;;;3.47;;
79330;SDS011;68797;49.782;19.054;2023-10-08T02:47:54;10.38;;;3.58;;
79330;SDS011;68797;49.782;19.054;2023-10-08T02:50:21;5.80;;;3.22;;
79330;SDS011;68797;49.782;19.054;2023-10-08T02:52:48;9.52;;;3.03;;
79330;SDS011;68797;49.782;19.054;2023-10-08T02:55:18;7.60;;;3.08;;
79330;SDS011;68797;49.782;19.054;2023-10-08T02:57:50;5.53;;;2.60;;
79330;SDS011;68797;49.782;19.054;2023-10-08T03:00:17;6.28;;;2.90;;
79330;SDS011;68797;49.782;19.054;2023-10-08T03:02:46;8.75;;;3.05;;
79330;SDS011;68797;49.782;19.054;2023-10-08T03:05:12;8.20;;;2.97;;
79330;SDS011;68797;49.782;19.054;2023-10-08T03:07:44;5.28;;;2.75;;
79330;SDS011;68797;49.782;19.054;2023-10-08T03:10:10;7.47;;;3.45;;
79330;SDS011;68797;49.782;19.054;2023-10-08T03:12:45;8.30;;;3.42;;
79330;SDS011;68797;49.782;19.054;2023-10-08T03:15:13;7.47;;;3.17;;
79330;SDS011;68797;49.782;19.054;2023-10-08T03:17:55;6.88;;;3.20;;
79330;SDS011;68797;49.782;19.054;2023-10-08T03:20:23;7.93;;;2.92;;
79330;SDS011;68797;49.782;19.054;2023-10-08T03:23:04;12.93;;;5.97;;
79330;SDS011;68797;49.782;19.054;2023-10-08T03:25:52;7.35;;;4.65;;
79330;SDS011;68797;49.782;19.054;2023-10-08T03:28:27;2.22;;;2.00;;
79330;SDS011;68797;49.782;19.054;2023-10-08T03:30:55;2.33;;;1.73;;
79330;SDS011;68797;49.782;19.054;2023-10-08T03:33:42;2.38;;;1.88;;
79330;SDS011;68797;49.782;19.054;2023-10-08T03:36:14;1.67;;;1.50;;
79330;SDS011;68797;49.782;19.054;2023-10-08T03:38:47;2.00;;;1.60;;
79330;SDS011;68797;49.782;19.054;2023-10-08T03:41:17;1.98;;;1.60;;
79330;SDS011;68797;49.782;19.054;2023-10-08T03:43:56;1.88;;;1.35;;
79330;SDS011;68797;49.782;19.054;2023-10-08T03:46:31;1.08;;;1.02;;
79330;SDS011;68797;49.782;19.054;2023-10-08T03:49:05;2.22;;;1.52;;
79330;SDS011;68797;49.782;19.054;2023-10-08T03:51:51;2.45;;;1.60;;
79330;SDS011;68797;49.782;19.054;2023-10-08T03:54:18;2.75;;;1.20;;
79330;SDS011;68797;49.782;19.054;2023-10-08T03:56:49;1.85;;;1.35;;
79330;SDS011;68797;49.782;19.054;2023-10-08T03:59:17;1.63;;;1.30;;
79330;SDS011;68797;49.782;19.054;2023-10-08T04:01:46;2.40;;;1.77;;
79330;SDS011;68797;49.782;19.054;2023-10-08T04:04:21;1.70;;;1.30;;
79330;SDS011;68797;49.782;19.054;2023-10-08T04:06:56;0.55;;;0.55;;
79330;SDS011;68797;49.782;19.054;2023-10-08T04:09:42;0.65;;;0.65;;
79330;SDS011;68797;49.782;19.054;2023-10-08T04:12:08;1.08;;;0.80;;
79330;SDS011;68797;49.782;19.054;2023-10-08T04:14:37;0.60;;;0.60;;
79330;SDS011;68797;49.782;19.054;2023-10-08T04:17:03;0.47;;;0.32;;
79330;SDS011;68797;49.782;19.054;2023-10-08T04:19:30;0.43;;;0.43;;
79330;SDS011;68797;49.782;19.054;2023-10-08T04:21:56;0.60;;;0.60;;
79330;SDS011;68797;49.782;19.054;2023-10-08T04:24:23;0.57;;;0.50;;
79330;SDS011;68797;49.782;19.054;2023-10-08T04:27:00;0.65;;;0.43;;
79330;SDS011;68797;49.782;19.054;2023-10-08T04:29:29;0.65;;;0.45;;
79330;SDS011;68797;49.782;19.054;2023-10-08T04:31:58;0.50;;;0.47;;
79330;SDS011;68797;49.782;19.054;2023-10-08T04:34:34;0.50;;;0.50;;
79330;SDS011;68797;49.782;19.054;2023-10-08T04:39:28;0.50;;;0.50;;
79330;SDS011;68797;49.782;19.054;2023-10-08T04:42:00;1.10;;;0.40;;
79330;SDS011;68797;49.782;19.054;2023-10-08T04:44:39;0.75;;;0.75;;
79330;SDS011;68797;49.782;19.054;2023-10-08T04:47:07;0.80;;;0.55;;
79330;SDS011;68797;49.782;19.054;2023-10-08T04:49:36;0.73;;;0.73;;
79330;SDS011;68797;49.782;19.054;2023-10-08T04:52:11;1.80;;;0.75;;
79330;SDS011;68797;49.782;19.054;2023-10-08T04:54:42;0.73;;;0.73;;
79330;SDS011;68797;49.782;19.054;2023-10-08T04:57:18;0.88;;;0.77;;
79330;SDS011;68797;49.782;19.054;2023-10-08T04:59:52;1.42;;;1.05;;
79330;SDS011;68797;49.782;19.054;2023-10-08T05:02:23;1.50;;;0.90;;
79330;SDS011;68797;49.782;19.054;2023-10-08T05:05:19;1.52;;;1.42;;
79330;SDS011;68797;49.782;19.054;2023-10-08T05:07:46;3.20;;;1.67;;
79330;SDS011;68797;49.782;19.054;2023-10-08T05:10:25;2.28;;;1.65;;
79330;SDS011;68797;49.782;19.054;2023-10-08T05:12:53;2.00;;;0.90;;
79330;SDS011;68797;49.782;19.054;2023-10-08T05:15:33;1.88;;;1.17;;
79330;SDS011;68797;49.782;19.054;2023-10-08T05:18:04;1.75;;;1.20;;
79330;SDS011;68797;49.782;19.054;2023-10-08T05:20:51;1.15;;;0.95;;
79330;SDS011;68797;49.782;19.054;2023-10-08T05:23:19;3.92;;;2.05;;
79330;SDS011;68797;49.782;19.054;2023-10-08T05:26:00;2.65;;;1.50;;
79330;SDS011;68797;49.782;19.054;2023-10-08T05:28:46;3.28;;;1.90;;
79330;SDS011;68797;49.782;19.054;2023-10-08T05:31:29;3.40;;;1.48;;
79330;SDS011;68797;49.782;19.054;2023-10-08T05:34:08;3.58;;;1.38;;
79330;SDS011;68797;49.782;19.054;2023-10-08T05:36:51;3.28;;;1.60;;
79330;SDS011;68797;49.782;19.054;2023-10-08T05:39:33;3.63;;;1.60;;
79330;SDS011;68797;49.782;19.054;2023-10-08T05:42:08;2.78;;;1.70;;
79330;SDS011;68797;49.782;19.054;2023-10-08T05:44:54;2.55;;;1.63;;
79330;SDS011;68797;49.782;19.054;2023-10-08T05:47:39;8.57;;;2.75;;
79330;SDS011;68797;49.782;19.054;2023-10-08T05:50:09;4.13;;;2.28;;
79330;SDS011;68797;49.782;19.054;2023-10-08T05:52:57;3.53;;;1.50;;
79330;SDS011;68797;49.782;19.054;2023-10-08T05:55:23;3.25;;;1.55;;
79330;SDS011;68797;49.782;19.054;2023-10-08T06:00:42;3.28;;;1.60;;
79330;SDS011;68797;49.782;19.054;2023-10-08T06:03:29;4.40;;;1.65;;
79330;SDS011;68797;49.782;19.054;2023-10-08T06:06:06;5.43;;;1.75;;
79330;SDS011;68797;49.782;19.054;2023-10-08T06:08:40;2.72;;;1.50;;
79330;SDS011;68797;49.782;19.054;2023-10-08T06:11:26;3.85;;;1.80;;
79330;SDS011;68797;49.782;19.054;2023-10-08T06:14:11;4.55;;;1.90;;
79330;SDS011;68797;49.782;19.054;2023-10-08T06:16:57;7.00;;;2.10;;
79330;SDS011;68797;49.782;19.054;2023-10-08T06:19:51;3.70;;;1.70;;
79330;SDS011;68797;49.782;19.054;2023-10-08T06:22:19;3.38;;;1.40;;
79330;SDS011;68797;49.782;19.054;2023-10-08T06:24:52;4.53;;;2.05;;
79330;SDS011;68797;49.782;19.054;2023-10-08T06:27:42;4.88;;;2.30;;
79330;SDS011;68797;49.782;19.054;2023-10-08T06:30:12;4.57;;;2.00;;
79330;SDS011;68797;49.782;19.054;2023-10-08T06:32:43;3.67;;;1.90;;
79330;SDS011;68797;49.782;19.054;2023-10-08T06:35:11;4.35;;;1.67;;
79330;SDS011;68797;49.782;19.054;2023-10-08T06:37:46;5.78;;;2.10;;
79330;SDS011;68797;49.782;19.054;2023-10-08T06:40:35;4.05;;;1.95;;
79330;SDS011;68797;49.782;19.054;2023-10-08T06:43:02;5.68;;;2.00;;
79330;SDS011;68797;49.782;19.054;2023-10-08T06:45:41;4.25;;;1.98;;
79330;SDS011;68797;49.782;19.054;2023-10-08T06:48:09;9.48;;;2.50;;
79330;SDS011;68797;49.782;19.054;2023-10-08T06:50:49;5.15;;;2.72;;
79330;SDS011;68797;49.782;19.054;2023-10-08T06:53:17;4.53;;;2.35;;
79330;SDS011;68797;49.782;19.054;2023-10-08T06:55:47;6.70;;;2.80;;
79330;SDS011;68797;49.782;19.054;2023-10-08T06:58:20;3.38;;;2.00;;
79330;SDS011;68797;49.782;19.054;2023-10-08T07:00:51;4.85;;;2.45;;
79330;SDS011;68797;49.782;19.054;2023-10-08T07:03:18;7.53;;;4.03;;
79330;SDS011;68797;49.782;19.054;2023-10-08T07:05:47;7.05;;;3.40;;
79330;SDS011;68797;49.782;19.054;2023-10-08T07:08:26;4.82;;;2.60;;
79330;SDS011;68797;49.782;19.054;2023-10-08T07:11:02;6.88;;;3.03;;
79330;SDS011;68797;49.782;19.054;2023-10-08T07:13:33;4.95;;;1.90;;
79330;SDS011;68797;49.782;19.054;2023-10-08T07:16:02;4.50;;;2.20;;
79330;SDS011;68797;49.782;19.054;2023-10-08T07:18:30;4.60;;;2.00;;
79330;SDS011;68797;49.782;19.054;2023-10-08T07:20:59;9.60;;;6.25;;
79330;SDS011;68797;49.782;19.054;2023-10-08T07:23:27;13.30;;;4.72;;
79330;SDS011;68797;49.782;19.054;2023-10-08T07:26:03;6.40;;;2.80;;
79330;SDS011;68797;49.782;19.054;2023-10-08T07:28:40;5.90;;;2.33;;
79330;SDS011;68797;49.782;19.054;2023-10-08T07:31:21;4.75;;;2.65;;
79330;SDS011;68797;49.782;19.054;2023-10-08T07:33:56;5.07;;;2.20;;
79330;SDS011;68797;49.782;19.054;2023-10-08T07:36:26;3.25;;;1.92;;
79330;SDS011;68797;49.782;19.054;2023-10-08T07:38:54;5.78;;;2.08;;
79330;SDS011;68797;49.782;19.054;2023-10-08T07:41:20;12.10;;;6.13;;
79330;SDS011;68797;49.782;19.054;2023-10-08T07:43:47;9.55;;;4.20;;
79330;SDS011;68797;49.782;19.054;2023-10-08T07:46:26;4.60;;;2.80;;
79330;SDS011;68797;49.782;19.054;2023-10-08T07:48:56;3.75;;;2.13;;
79330;SDS011;68797;49.782;19.054;2023-10-08T07:51:30;5.13;;;2.78;;
79330;SDS011;68797;49.782;19.054;2023-10-08T07:54:02;3.25;;;2.30;;
79330;SDS011;68797;49.782;19.054;2023-10-08T07:56:50;3.63;;;2.10;;
79330;SDS011;68797;49.782;19.054;2023-10-08T07:59:35;5.82;;;2.38;;
79330;SDS011;68797;49.782;19.054;2023-10-08T08:02:09;6.85;;;2.20;;
79330;SDS011;68797;49.782;19.054;2023-10-08T08:04:39;4.07;;;1.70;;
79330;SDS011;68797;49.782;19.054;2023-10-08T08:07:13;3.35;;;1.80;;
79330;SDS011;68797;49.782;19.054;2023-10-08T08:09:45;5.68;;;2.03;;
79330;SDS011;68797;49.782;19.054;2023-10-08T08:12:18;3.85;;;1.83;;
79330;SDS011;68797;49.782;19.054;2023-10-08T08:14:48;17.20;;;6.60;;
79330;SDS011;68797;49.782;19.054;2023-10-08T08:17:15;4.35;;;2.00;;
79330;SDS011;68797;49.782;19.054;2023-10-08T08:19:43;6.95;;;3.65;;
79330;SDS011;68797;49.782;19.054;2023-10-08T08:22:14;4.43;;;2.22;;
79330;SDS011;68797;49.782;19.054;2023-10-08T08:24:48;4.05;;;2.17;;
79330;SDS011;68797;49.782;19.054;2023-10-08T08:27:20;5.43;;;2.15;;
79330;SDS011;68797;49.782;19.054;2023-10-08T08:30:15;4.25;;;2.13;;
79330;SDS011;68797;49.782;19.054;2023-10-08T08:32:46;3.92;;;2.50;;
79330;SDS011;68797;49.782;19.054;2023-10-08T08:35:22;7.53;;;4.07;;
79330;SDS011;68797;49.782;19.054;2023-10-08T08:37:51;3.60;;;2.05;;
79330;SDS011;68797;49.782;19.054;2023-10-08T08:40:18;6.47;;;2.55;;
79330;SDS011;68797;49.782;19.054;2023-10-08T08:42:49;4.30;;;2.08;;
79330;SDS011;68797;49.782;19.054;2023-10-08T08:45:21;5.32;;;2.97;;
79330;SDS011;68797;49.782;19.054;2023-10-08T08:47:53;10.00;;;4.15;;
79330;SDS011;68797;49.782;19.054;2023-10-08T08:50:19;10.98;;;5.32;;
79330;SDS011;68797;49.782;19.054;2023-10-08T08:52:47;17.65;;;6.25;;
79330;SDS011;68797;49.782;19.054;2023-10-08T08:55:13;5.65;;;2.45;;
79330;SDS011;68797;49.782;19.054;2023-10-08T08:57:44;4.93;;;2.60;;
79330;SDS011;68797;49.782;19.054;2023-10-08T09:00:14;7.35;;;2.83;;
79330;SDS011;68797;49.782;19.054;2023-10-08T09:02:45;7.72;;;2.90;;
79330;SDS011;68797;49.782;19.054;2023-10-08T09:05:13;10.05;;;4.80;;
79330;SDS011;68797;49.782;19.054;2023-10-08T09:07:58;6.65;;;2.78;;
79330;SDS011;68797;49.782;19.054;2023-10-08T09:10:29;5.35;;;3.00;;
79330;SDS011;68797;49.782;19.054;2023-10-08T09:12:56;4.70;;;2.42;;
79330;SDS011;68797;49.782;19.054;2023-10-08T09:15:24;6.20;;;3.13;;
79330;SDS011;68797;49.782;19.054;2023-10-08T09:17:52;8.50;;;2.92;;
79330;SDS011;68797;49.782;19.054;2023-10-08T09:20:20;5.82;;;3.00;;
79330;SDS011;68797;49.782;19.054;2023-10-08T09:23:06;4.80;;;3.15;;
79330;SDS011;68797;49.782;19.054;2023-10-08T09:25:33;5.53;;;3.70;;
79330;SDS011;68797;49.782;19.054;2023-10-08T09:28:01;4.88;;;2.88;;
79330;SDS011;68797;49.782;19.054;2023-10-08T09:30:29;8.38;;;3.92;;
79330;SDS011;68797;49.782;19.054;2023-10-08T09:32:55;6.63;;;3.70;;
79330;SDS011;68797;49.782;19.054;2023-10-08T09:35:22;7.45;;;3.72;;
79330;SDS011;68797;49.782;19.054;2023-10-08T09:37:51;7.28;;;4.10;;
79330;SDS011;68797;49.782;19.054;2023-10-08T09:40:19;5.05;;;3.47;;
79330;SDS011;68797;49.782;19.054;2023-10-08T09:42:47;5.05;;;3.38;;
79330;SDS011;68797;49.782;19.054;2023-10-08T09:45:13;7.22;;;2.90;;
79330;SDS011;68797;49.782;19.054;2023-10-08T09:47:42;5.05;;;3.28;;
79330;SDS011;68797;49.782;19.054;2023-10-08T09:50:15;5.53;;;3.33;;
79330;SDS011;68797;49.782;19.054;2023-10-08T09:52:44;5.13;;;2.85;;
79330;SDS011;68797;49.782;19.054;2023-10-08T09:55:32;5.32;;;3.58;;
79330;SDS011;68797;49.782;19.054;2023-10-08T09:57:59;8.65;;;3.30;;
79330;SDS011;68797;49.782;19.054;2023-10-08T10:00:26;5.97;;;3.15;;
79330;SDS011;68797;49.782;19.054;2023-10-08T10:02:59;5.95;;;3.08;;
79330;SDS011;68797;49.782;19.054;2023-10-08T10:05:30;6.22;;;3.35;;
79330;SDS011;68797;49.782;19.054;2023-10-08T10:07:58;5.18;;;2.95;;
79330;SDS011;68797;49.782;19.054;2023-10-08T10:10:33;5.90;;;3.00;;
79330;SDS011;68797;49.782;19.054;2023-10-08T10:13:04;5.47;;;2.60;;
79330;SDS011;68797;49.782;19.054;2023-10-08T10:15:34;8.30;;;3.45;;
79330;SDS011;68797;49.782;19.054;2023-10-08T11:04:35;6.75;;;2.58;;
79330;SDS011;68797;49.782;19.054;2023-10-08T11:07:22;2.85;;;1.92;;
79330;SDS011;68797;49.782;19.054;2023-10-08T11:09:50;4.43;;;2.28;;
79330;SDS011;68797;49.782;19.054;2023-10-08T11:12:18;4.18;;;2.47;;
79330;SDS011;68797;49.782;19.054;2023-10-08T11:14:49;2.55;;;1.85;;
79330;SDS011;68797;49.782;19.054;2023-10-08T11:17:22;6.25;;;2.30;;
79330;SDS011;68797;49.782;19.054;2023-10-08T11:19:52;2.38;;;1.73;;
79330;SDS011;68797;49.782;19.054;2023-10-08T11:22:19;3.22;;;2.10;;
79330;SDS011;68797;49.782;19.054;2023-10-08T11:24:48;3.22;;;2.20;;
79330;SDS011;68797;49.782;19.054;2023-10-08T11:27:20;4.63;;;2.13;;
79330;SDS011;68797;49.782;19.054;2023-10-08T11:30:04;3.72;;;1.90;;
79330;SDS011;68797;49.782;19.054;2023-10-08T11:35:04;3.58;;;1.52;;
79330;SDS011;68797;49.782;19.054;2023-10-08T11:37:47;4.28;;;1.40;;
79330;SDS011;68797;49.782;19.054;2023-10-08T11:40:23;1.85;;;1.20;;
79330;SDS011;68797;49.782;19.054;2023-10-08T11:43:14;2.95;;;1.80;;
79330;SDS011;68797;49.782;19.054;2023-10-08T11:45:44;3.47;;;1.85;;
79330;SDS011;68797;49.782;19.054;2023-10-08T11:48:30;2.45;;;1.40;;
79330;SDS011;68797;49.782;19.054;2023-10-08T11:50:58;3.28;;;1.65;;
79330;SDS011;68797;49.782;19.054;2023-10-08T11:53:27;2.95;;;2.10;;
79330;SDS011;68797;49.782;19.054;2023-10-08T11:55:54;3.55;;;1.77;;
79330;SDS011;68797;49.782;19.054;2023-10-08T11:58:24;3.50;;;1.42;;
79330;SDS011;68797;49.782;19.054;2023-10-08T12:01:03;2.72;;;1.50;;
79330;SDS011;68797;49.782;19.054;2023-10-08T12:03:29;3.60;;;1.83;;
79330;SDS011;68797;49.782;19.054;2023-10-08T12:05:57;3.95;;;1.92;;
79330;SDS011;68797;49.782;19.054;2023-10-08T12:08:28;4.88;;;1.90;;
79330;SDS011;68797;49.782;19.054;2023-10-08T12:10:54;3.88;;;1.75;;
79330;SDS011;68797;49.782;19.054;2023-10-08T12:13:21;1.80;;;1.42;;
79330;SDS011;68797;49.782;19.054;2023-10-08T12:15:52;2.55;;;1.52;;
79330;SDS011;68797;49.782;19.054;2023-10-08T12:18:32;3.35;;;1.58;;
79330;SDS011;68797;49.782;19.054;2023-10-08T12:21:05;2.55;;;2.00;;
79330;SDS011;68797;49.782;19.054;2023-10-08T12:23:39;2.40;;;1.42;;
79330;SDS011;68797;49.782;19.054;2023-10-08T12:26:06;3.50;;;1.58;;
79330;SDS011;68797;49.782;19.054;2023-10-08T12:28:36;2.20;;;1.50;;
79330;SDS011;68797;49.782;19.054;2023-10-08T12:31:03;3.75;;;1.50;;
79330;SDS011;68797;49.782;19.054;2023-10-08T12:33:34;3.92;;;1.70;;
79330;SDS011;68797;49.782;19.054;2023-10-08T12:36:04;3.47;;;1.83;;
79330;SDS011;68797;49.782;19.054;2023-10-08T12:38:37;2.22;;;1.40;;
79330;SDS011;68797;49.782;19.054;2023-10-08T12:41:13;1.98;;;1.35;;
79330;SDS011;68797;49.782;19.054;2023-10-08T12:43:45;2.10;;;1.52;;
79330;SDS011;68797;49.782;19.054;2023-10-08T12:46:15;2.42;;;1.30;;
79330;SDS011;68797;49.782;19.054;2023-10-08T12:48:44;2.75;;;1.60;;
79330;SDS011;68797;49.782;19.054;2023-10-08T12:51:14;3.25;;;1.70;;
79330;SDS011;68797;49.782;19.054;2023-10-08T12:53:42;4.55;;;2.03;;
79330;SDS011;68797;49.782;19.054;2023-10-08T12:56:32;3.85;;;2.00;;
79330;SDS011;68797;49.782;19.054;2023-10-08T12:59:32;2.53;;;1.40;;
79330;SDS011;68797;49.782;19.054;2023-10-08T13:02:17;2.35;;;1.50;;
79330;SDS011;68797;49.782;19.054;2023-10-08T13:04:46;3.63;;;1.98;;
79330;SDS011;68797;49.782;19.054;2023-10-08T13:07:23;3.00;;;1.42;;
79330;SDS011;68797;49.782;19.054;2023-10-08T13:09:52;1.75;;;1.20;;
79330;SDS011;68797;49.782;19.054;2023-10-08T13:12:19;4.47;;;1.80;;
79330;SDS011;68797;49.782;19.054;2023-10-08T13:14:47;2.75;;;1.40;;
79330;SDS011;68797;49.782;19.054;2023-10-08T13:17:13;3.58;;;1.63;;
79330;SDS011;68797;49.782;19.054;2023-10-08T13:19:40;2.67;;;1.33;;
79330;SDS011;68797;49.782;19.054;2023-10-08T13:31:08;4.95;;;2.17;;
79330;SDS011;68797;49.782;19.054;2023-10-08T13:33:39;2.45;;;1.40;;
79330;SDS011;68797;49.782;19.054;2023-10-08T13:39:35;4.05;;;1.88;;
79330;SDS011;68797;49.782;19.054;2023-10-08T13:42:01;2.42;;;1.25;;
79330;SDS011;68797;49.782;19.054;2023-10-08T13:44:48;6.80;;;2.38;;
79330;SDS011;68797;49.782;19.054;2023-10-08T13:47:15;3.25;;;1.70;;
79330;SDS011;68797;49.782;19.054;2023-10-08T13:50:02;2.42;;;1.38;;
79330;SDS011;68797;49.782;19.054;2023-10-08T13:52:37;2.80;;;1.42;;
79330;SDS011;68797;49.782;19.054;2023-10-08T13:55:06;3.95;;;1.75;;
79330;SDS011;68797;49.782;19.054;2023-10-08T13:57:43;3.47;;;1.40;;
79330;SDS011;68797;49.782;19.054;2023-10-08T14:00:15;1.92;;;1.40;;
79330;SDS011;68797;49.782;19.054;2023-10-08T14:02:42;1.85;;;1.50;;
79330;SDS011;68797;49.782;19.054;2023-10-08T14:05:12;1.85;;;1.30;;
79330;SDS011;68797;49.782;19.054;2023-10-08T14:07:59;2.25;;;1.52;;
79330;SDS011;68797;49.782;19.054;2023-10-08T14:10:49;16.92;;;8.50;;
79330;SDS011;68797;49.782;19.054;2023-10-08T14:13:16;3.25;;;1.50;;
79330;SDS011;68797;49.782;19.054;2023-10-08T14:15:46;2.17;;;1.20;;
79330;SDS011;68797;49.782;19.054;2023-10-08T14:18:22;2.33;;;1.30;;
79330;SDS011;68797;49.782;19.054;2023-10-08T14:20:57;2.40;;;1.40;;
79330;SDS011;68797;49.782;19.054;2023-10-08T14:23:34;1.85;;;1.20;;
79330;SDS011;68797;49.782;19.054;2023-10-08T14:26:05;3.72;;;1.40;;
79330;SDS011;68797;49.782;19.054;2023-10-08T14:28:34;2.65;;;1.10;;
79330;SDS011;68797;49.782;19.054;2023-10-08T14:31:07;2.53;;;1.58;;
79330;SDS011;68797;49.782;19.054;2023-10-08T14:33:35;2.70;;;1.40;;
79330;SDS011;68797;49.782;19.054;2023-10-08T14:36:10;1.77;;;1.27;;
79330;SDS011;68797;49.782;19.054;2023-10-08T14:38:56;4.25;;;2.58;;
79330;SDS011;68797;49.782;19.054;2023-10-08T14:41:41;2.28;;;1.20;;
79330;SDS011;68797;49.782;19.054;2023-10-08T14:44:27;4.85;;;2.42;;
79330;SDS011;68797;49.782;19.054;2023-10-08T14:46:54;2.53;;;1.50;;
79330;SDS011;68797;49.782;19.054;2023-10-08T14:49:22;2.95;;;1.70;;
79330;SDS011;68797;49.782;19.054;2023-10-08T14:51:49;1.52;;;1.20;;
79330;SDS011;68797;49.782;19.054;2023-10-08T14:54:16;1.55;;;1.17;;
79330;SDS011;68797;49.782;19.054;2023-10-08T14:56:43;1.92;;;0.98;;
79330;SDS011;68797;49.782;19.054;2023-10-08T14:59:10;3.58;;;1.73;;
79330;SDS011;68797;49.782;19.054;2023-10-08T15:01:38;2.72;;;1.40;;
79330;SDS011;68797;49.782;19.054;2023-10-08T15:04:04;3.92;;;1.60;;
79330;SDS011;68797;49.782;19.054;2023-10-08T15:06:32;2.38;;;1.25;;
79330;SDS011;68797;49.782;19.054;2023-10-08T15:08:59;4.63;;;1.38;;
79330;SDS011;68797;49.782;19.054;2023-10-08T15:11:28;2.45;;;1.60;;
79330;SDS011;68797;49.782;19.054;2023-10-08T15:14:03;2.20;;;1.30;;
79330;SDS011;68797;49.782;19.054;2023-10-08T15:16:39;3.22;;;1.63;;
79330;SDS011;68797;49.782;19.054;2023-10-08T15:19:06;3.28;;;1.30;;
79330;SDS011;68797;49.782;19.054;2023-10-08T15:21:40;3.70;;;1.52;;
79330;SDS011;68797;49.782;19.054;2023-10-08T15:24:08;6.25;;;1.80;;
79330;SDS011;68797;49.782;19.054;2023-10-08T15:26:42;2.90;;;1.42;;
79330;SDS011;68797;49.782;19.054;2023-10-08T15:29:09;3.35;;;1.40;;
79330;SDS011;68797;49.782;19.054;2023-10-08T15:31:41;2.85;;;1.75;;
79330;SDS011;68797;49.782;19.054;2023-10-08T15:34:09;2.33;;;1.40;;
79330;SDS011;68797;49.782;19.054;2023-10-08T15:36:39;2.03;;;1.50;;
79330;SDS011;68797;49.782;19.054;2023-10-08T15:39:06;3.67;;;1.60;;
79330;SDS011;68797;49.782;19.054;2023-10-08T15:41:40;3.55;;;1.58;;
79330;SDS011;68797;49.782;19.054;2023-10-08T15:44:11;3.15;;;1.17;;
79330;SDS011;68797;49.782;19.054;2023-10-08T15:46:39;4.53;;;1.60;;
79330;SDS011;68797;49.782;19.054;2023-10-08T15:51:35;2.65;;;1.50;;
79330;SDS011;68797;49.782;19.054;2023-10-08T15:54:02;2.92;;;1.70;;
79330;SDS011;68797;49.782;19.054;2023-10-08T15:56:39;3.50;;;1.20;;
79330;SDS011;68797;49.782;19.054;2023-10-08T15:59:06;2.80;;;1.52;;
79330;SDS011;68797;49.782;19.054;2023-10-08T16:01:32;4.30;;;2.17;;
79330;SDS011;68797;49.782;19.054;2023-10-08T16:04:02;2.35;;;1.58;;
79330;SDS011;68797;49.782;19.054;2023-10-08T16:06:28;2.80;;;1.58;;
79330;SDS011;68797;49.782;19.054;2023-10-08T16:09:00;3.65;;;1.90;;
79330;SDS011;68797;49.782;19.054;2023-10-08T16:11:26;5.47;;;2.00;;
79330;SDS011;68797;49.782;19.054;2023-10-08T16:13:58;3.78;;;2.03;;
79330;SDS011;68797;49.782;19.054;2023-10-08T16:16:24;4.35;;;1.77;;
79330;SDS011;68797;49.782;19.054;2023-10-08T16:18:51;3.58;;;1.65;;
79330;SDS011;68797;49.782;19.054;2023-10-08T16:21:19;3.38;;;1.70;;
79330;SDS011;68797;49.782;19.054;2023-10-08T16:23:48;3.70;;;1.63;;